sensor_id;sensor_type;location;lat;lon;timestamp;P1;P2;P0
29460;PMS7003;16428;47.836;35.106;2022-12-31T10:34:15;63.75;50.75;34.25
29460;PMS7003;16428;47.836;35.106;2022-12-31T10:48:39;69.00;53.75;35.75
29460;PMS7003;16428;47.836;35.106;2022-12-31T11:00:09;64.50;52.75;35.50
29460;PMS7003;16428;47.836;35.106;2022-12-31T11:06:06;71.50;55.75;35.00
29460;PMS7003;16428;47.836;35.106;2022-12-31T11:15:29;55.25;42.25;26.00
29460;PMS7003;16428;47.836;35.106;2022-12-31T11:21:23;69.00;53.75;36.25
29460;PMS7003;16428;47.836;35.106;2022-12-31T11:24:08;62.25;49.75;35.00
29460;PMS7003;16428;47.836;35.106;2022-12-31T11:36:08;61.25;49.00;34.00
29460;PMS7003;16428;47.836;35.106;2022-12-31T11:38:49;62.50;49.75;32.75
29460;PMS7003;16428;47.836;35.106;2022-12-31T11:56:34;64.00;52.00;35.00
29460;PMS7003;16428;47.836;35.106;2022-12-31T11:59:13;68.00;53.25;34.00
29460;PMS7003;16428;47.836;35.106;2022-12-31T12:02:00;55.75;44.50;28.75
29460;PMS7003;16428;47.836;35.106;2022-12-31T12:04:44;68.25;52.00;34.75
29460;PMS7003;16428;47.836;35.106;2022-12-31T12:07:19;63.50;48.75;34.25
29460;PMS7003;16428;47.836;35.106;2022-12-31T12:09:53;65.50;46.50;32.00
29460;PMS7003;16428;47.836;35.106;2022-12-31T12:12:42;62.00;48.00;33.00
29460;PMS7003;16428;47.836;35.106;2022-12-31T12:15:20;59.25;47.00;32.00
29460;PMS7003;16428;47.836;35.106;2022-12-31T12:18:07;60.25;49.25;31.75
29460;PMS7003;16428;47.836;35.106;2022-12-31T12:21:16;50.75;41.50;29.75
29460;PMS7003;16428;47.836;35.106;2022-12-31T12:23:57;55.50;47.50;32.50
29460;PMS7003;16428;47.836;35.106;2022-12-31T12:26:39;60.50;47.50;32.00
29460;PMS7003;16428;47.836;35.106;2022-12-31T12:29:30;61.00;48.00;32.00
29460;PMS7003;16428;47.836;35.106;2022-12-31T12:32:15;61.75;47.00;32.75
29460;PMS7003;16428;47.836;35.106;2022-12-31T12:35:15;61.50;50.00;30.50
29460;PMS7003;16428;47.836;35.106;2022-12-31T12:37:46;62.00;47.50;32.25
29460;PMS7003;16428;47.836;35.106;2022-12-31T12:40:25;61.50;43.75;29.25
29460;PMS7003;16428;47.836;35.106;2022-12-31T12:43:04;60.00;48.00;32.75
29460;PMS7003;16428;47.836;35.106;2022-12-31T12:45:42;65.50;48.25;33.25
29460;PMS7003;16428;47.836;35.106;2022-12-31T12:48:42;54.75;45.25;32.00
29460;PMS7003;16428;47.836;35.106;2022-12-31T13:04:27;51.25;43.00;30.75
29460;PMS7003;16428;47.836;35.106;2022-12-31T13:12:48;61.00;47.75;33.50
29460;PMS7003;16428;47.836;35.106;2022-12-31T13:27:48;70.00;52.75;36.25
29460;PMS7003;16428;47.836;35.106;2022-12-31T13:33:23;55.25;42.75;28.25
29460;PMS7003;16428;47.836;35.106;2022-12-31T13:36:01;73.00;58.00;37.75
29460;PMS7003;16428;47.836;35.106;2022-12-31T13:38:39;58.25;43.00;29.25
29460;PMS7003;16428;47.836;35.106;2022-12-31T13:50:21;61.75;47.75;33.00
29460;PMS7003;16428;47.836;35.106;2022-12-31T13:53:07;72.50;53.50;34.50
29460;PMS7003;16428;47.836;35.106;2022-12-31T13:55:43;68.25;47.25;34.50
29460;PMS7003;16428;47.836;35.106;2022-12-31T14:04:10;100.00;85.33;57.33
29460;PMS7003;16428;47.836;35.106;2022-12-31T14:09:33;72.50;55.75;35.75
29460;PMS7003;16428;47.836;35.106;2022-12-31T14:15:28;56.50;42.50;28.75
29460;PMS7003;16428;47.836;35.106;2022-12-31T14:20:46;60.00;45.50;32.50
29460;PMS7003;16428;47.836;35.106;2022-12-31T14:26:23;49.50;43.75;28.50
29460;PMS7003;16428;47.836;35.106;2022-12-31T14:29:48;46.25;36.00;27.00
29460;PMS7003;16428;47.836;35.106;2022-12-31T14:35:17;53.75;41.50;28.25
29460;PMS7003;16428;47.836;35.106;2022-12-31T14:37:55;61.00;45.00;29.25
29460;PMS7003;16428;47.836;35.106;2022-12-31T14:46:43;44.50;38.75;27.00
29460;PMS7003;16428;47.836;35.106;2022-12-31T14:53:46;40.50;35.75;25.00
29460;PMS7003;16428;47.836;35.106;2022-12-31T14:56:44;43.50;37.00;25.75
29460;PMS7003;16428;47.836;35.106;2022-12-31T14:59:23;55.75;44.25;31.50
29460;PMS7003;16428;47.836;35.106;2022-12-31T15:01:55;55.50;42.50;29.50
29460;PMS7003;16428;47.836;35.106;2022-12-31T15:04:43;44.00;38.25;27.25
29460;PMS7003;16428;47.836;35.106;2022-12-31T15:07:19;46.25;39.25;27.00
29460;PMS7003;16428;47.836;35.106;2022-12-31T15:10:27;37.25;35.50;25.00
29460;PMS7003;16428;47.836;35.106;2022-12-31T15:16:23;40.25;33.75;24.50
29460;PMS7003;16428;47.836;35.106;2022-12-31T15:25:21;32.25;31.75;24.00
29460;PMS7003;16428;47.836;35.106;2022-12-31T15:31:02;37.75;34.25;23.50
29460;PMS7003;16428;47.836;35.106;2022-12-31T15:33:55;43.75;37.50;27.25
29460;PMS7003;16428;47.836;35.106;2022-12-31T15:36:37;45.25;39.50;28.00
29460;PMS7003;16428;47.836;35.106;2022-12-31T15:39:35;25.75;15.75;12.00
29460;PMS7003;16428;47.836;35.106;2022-12-31T15:42:26;45.50;37.25;26.25
29460;PMS7003;16428;47.836;35.106;2022-12-31T15:45:06;38.75;35.75;26.25
29460;PMS7003;16428;47.836;35.106;2022-12-31T15:48:08;54.50;39.50;27.75
29460;PMS7003;16428;47.836;35.106;2022-12-31T15:50:43;50.75;39.25;26.75
29460;PMS7003;16428;47.836;35.106;2022-12-31T15:53:47;46.00;40.75;28.00
29460;PMS7003;16428;47.836;35.106;2022-12-31T15:56:15;38.50;31.75;22.25
29460;PMS7003;16428;47.836;35.106;2022-12-31T15:59:05;42.25;38.50;26.00
29460;PMS7003;16428;47.836;35.106;2022-12-31T16:01:40;46.50;36.25;28.25
29460;PMS7003;16428;47.836;35.106;2022-12-31T16:04:15;36.25;36.25;27.25
29460;PMS7003;16428;47.836;35.106;2022-12-31T16:06:47;37.25;36.00;24.75
29460;PMS7003;16428;47.836;35.106;2022-12-31T16:11:56;45.00;37.00;25.25
29460;PMS7003;16428;47.836;35.106;2022-12-31T16:14:33;42.75;38.75;27.00
29460;PMS7003;16428;47.836;35.106;2022-12-31T16:17:04;52.00;43.75;27.75
29460;PMS7003;16428;47.836;35.106;2022-12-31T16:22:13;37.00;37.00;25.00
29460;PMS7003;16428;47.836;35.106;2022-12-31T16:24:44;41.75;33.50;20.25
29460;PMS7003;16428;47.836;35.106;2022-12-31T16:27:43;33.50;27.00;21.50
29460;PMS7003;16428;47.836;35.106;2022-12-31T16:30:21;39.25;35.50;21.25
29460;PMS7003;16428;47.836;35.106;2022-12-31T16:32:50;46.75;38.75;24.75
29460;PMS7003;16428;47.836;35.106;2022-12-31T16:35:24;50.00;40.50;26.75
29460;PMS7003;16428;47.836;35.106;2022-12-31T16:38:02;53.25;40.50;27.00
29460;PMS7003;16428;47.836;35.106;2022-12-31T16:40:39;40.50;36.25;25.50
29460;PMS7003;16428;47.836;35.106;2022-12-31T16:43:28;46.50;40.25;25.50
29460;PMS7003;16428;47.836;35.106;2022-12-31T16:46:08;29.50;25.75;19.25
29460;PMS7003;16428;47.836;35.106;2022-12-31T16:48:45;47.75;39.75;26.25
29460;PMS7003;16428;47.836;35.106;2022-12-31T16:51:16;48.50;37.75;26.25
29460;PMS7003;16428;47.836;35.106;2022-12-31T16:53:47;45.00;40.75;28.00
29460;PMS7003;16428;47.836;35.106;2022-12-31T16:56:21;55.50;37.50;25.75
29460;PMS7003;16428;47.836;35.106;2022-12-31T16:59:00;44.75;38.75;27.75
29460;PMS7003;16428;47.836;35.106;2022-12-31T17:01:32;39.00;35.00;24.50
29460;PMS7003;16428;47.836;35.106;2022-12-31T17:04:04;60.50;31.75;20.50
29460;PMS7003;16428;47.836;35.106;2022-12-31T17:06:37;34.50;28.50;18.50
29460;PMS7003;16428;47.836;35.106;2022-12-31T17:09:14;37.50;34.00;25.50
29460;PMS7003;16428;47.836;35.106;2022-12-31T17:14:56;35.75;34.50;23.00
29460;PMS7003;16428;47.836;35.106;2022-12-31T17:17:33;56.50;39.25;25.00
29460;PMS7003;16428;47.836;35.106;2022-12-31T17:20:05;47.00;38.25;25.25
29460;PMS7003;16428;47.836;35.106;2022-12-31T17:22:41;52.00;39.75;27.75
29460;PMS7003;16428;47.836;35.106;2022-12-31T17:25:19;37.25;29.25;19.75
29460;PMS7003;16428;47.836;35.106;2022-12-31T17:35:36;44.00;37.75;28.00
29460;PMS7003;16428;47.836;35.106;2022-12-31T17:38:36;49.75;38.75;28.00
29460;PMS7003;16428;47.836;35.106;2022-12-31T17:41:13;44.50;37.75;28.25
29460;PMS7003;16428;47.836;35.106;2022-12-31T17:43:45;48.25;43.50;30.50
29460;PMS7003;16428;47.836;35.106;2022-12-31T17:46:19;44.25;34.50;25.75
29460;PMS7003;16428;47.836;35.106;2022-12-31T17:48:58;51.50;41.00;28.75
29460;PMS7003;16428;47.836;35.106;2022-12-31T17:51:43;18.50;8.75;0.00
29460;PMS7003;16428;47.836;35.106;2022-12-31T17:54:15;37.50;30.75;24.00
29460;PMS7003;16428;47.836;35.106;2022-12-31T17:56:48;34.75;28.25;23.00
29460;PMS7003;16428;47.836;35.106;2022-12-31T17:59:22;42.25;38.00;26.50
29460;PMS7003;16428;47.836;35.106;2022-12-31T18:01:56;47.25;39.00;24.50
29460;PMS7003;16428;47.836;35.106;2022-12-31T18:04:28;37.00;37.00;25.25
29460;PMS7003;16428;47.836;35.106;2022-12-31T18:06:56;51.75;37.75;25.25
29460;PMS7003;16428;47.836;35.106;2022-12-31T18:09:24;40.25;38.50;26.75
29460;PMS7003;16428;47.836;35.106;2022-12-31T18:11:53;45.25;36.75;27.00
29460;PMS7003;16428;47.836;35.106;2022-12-31T18:14:27;44.75;36.25;23.50
29460;PMS7003;16428;47.836;35.106;2022-12-31T18:16:55;39.75;34.75;25.00
29460;PMS7003;16428;47.836;35.106;2022-12-31T18:19:23;36.00;34.75;24.00
29460;PMS7003;16428;47.836;35.106;2022-12-31T18:22:13;41.00;29.50;21.00
29460;PMS7003;16428;47.836;35.106;2022-12-31T18:24:43;48.75;37.75;24.75
29460;PMS7003;16428;47.836;35.106;2022-12-31T18:27:15;39.75;32.75;22.00
29460;PMS7003;16428;47.836;35.106;2022-12-31T18:29:46;35.00;32.75;24.75
29460;PMS7003;16428;47.836;35.106;2022-12-31T18:32:25;42.25;35.75;26.00
29460;PMS7003;16428;47.836;35.106;2022-12-31T18:34:54;48.75;30.50;22.50
29460;PMS7003;16428;47.836;35.106;2022-12-31T18:37:22;43.00;32.25;22.25
29460;PMS7003;16428;47.836;35.106;2022-12-31T18:39:51;35.00;33.00;24.75
29460;PMS7003;16428;47.836;35.106;2022-12-31T18:42:20;39.25;31.25;22.25
29460;PMS7003;16428;47.836;35.106;2022-12-31T18:44:52;60.25;35.00;22.00
29460;PMS7003;16428;47.836;35.106;2022-12-31T18:47:20;52.00;38.75;26.75
29460;PMS7003;16428;47.836;35.106;2022-12-31T18:49:49;49.75;35.25;25.25
29460;PMS7003;16428;47.836;35.106;2022-12-31T18:52:18;32.50;27.25;21.00
29460;PMS7003;16428;47.836;35.106;2022-12-31T18:54:48;45.00;36.75;26.25
29460;PMS7003;16428;47.836;35.106;2022-12-31T18:57:16;37.75;33.00;23.25
29460;PMS7003;16428;47.836;35.106;2022-12-31T18:59:44;30.50;25.25;23.00
29460;PMS7003;16428;47.836;35.106;2022-12-31T19:02:15;43.00;38.50;26.50
29460;PMS7003;16428;47.836;35.106;2022-12-31T19:04:46;29.00;24.50;20.50
29460;PMS7003;16428;47.836;35.106;2022-12-31T19:07:15;33.75;23.50;17.50
29460;PMS7003;16428;47.836;35.106;2022-12-31T19:09:43;42.50;34.50;22.00
29460;PMS7003;16428;47.836;35.106;2022-12-31T19:12:13;30.25;27.00;21.50
29460;PMS7003;16428;47.836;35.106;2022-12-31T19:14:41;33.75;31.00;23.50
29460;PMS7003;16428;47.836;35.106;2022-12-31T19:17:09;25.75;25.75;19.50
29460;PMS7003;16428;47.836;35.106;2022-12-31T19:19:36;34.75;30.50;22.25
29460;PMS7003;16428;47.836;35.106;2022-12-31T19:22:04;36.75;28.25;19.00
29460;PMS7003;16428;47.836;35.106;2022-12-31T19:24:33;37.25;27.00;17.50
29460;PMS7003;16428;47.836;35.106;2022-12-31T19:27:01;39.75;38.00;25.25
29460;PMS7003;16428;47.836;35.106;2022-12-31T19:29:29;61.25;37.50;24.50
29460;PMS7003;16428;47.836;35.106;2022-12-31T19:31:57;43.50;34.00;20.00
29460;PMS7003;16428;47.836;35.106;2022-12-31T19:34:28;38.25;27.75;20.75
29460;PMS7003;16428;47.836;35.106;2022-12-31T19:36:56;33.00;32.75;21.50
29460;PMS7003;16428;47.836;35.106;2022-12-31T19:39:27;40.00;31.25;20.50
29460;PMS7003;16428;47.836;35.106;2022-12-31T19:41:55;37.00;33.25;22.75
29460;PMS7003;16428;47.836;35.106;2022-12-31T19:44:25;37.75;36.25;26.00
29460;PMS7003;16428;47.836;35.106;2022-12-31T19:46:53;32.25;28.75;23.00
29460;PMS7003;16428;47.836;35.106;2022-12-31T19:49:21;29.00;25.75;18.75
29460;PMS7003;16428;47.836;35.106;2022-12-31T19:51:49;32.50;28.75;19.75
29460;PMS7003;16428;47.836;35.106;2022-12-31T19:54:17;33.50;27.50;20.50
29460;PMS7003;16428;47.836;35.106;2022-12-31T19:56:45;24.00;18.75;15.00
29460;PMS7003;16428;47.836;35.106;2022-12-31T19:59:14;24.25;23.25;18.00
29460;PMS7003;16428;47.836;35.106;2022-12-31T20:01:42;27.00;21.50;15.25
29460;PMS7003;16428;47.836;35.106;2022-12-31T20:04:09;24.00;19.00;16.25
29460;PMS7003;16428;47.836;35.106;2022-12-31T20:06:40;27.75;27.75;19.00
29460;PMS7003;16428;47.836;35.106;2022-12-31T20:09:09;24.25;17.50;10.25
29460;PMS7003;16428;47.836;35.106;2022-12-31T20:11:37;21.25;18.75;13.00
29460;PMS7003;16428;47.836;35.106;2022-12-31T20:14:05;32.50;25.75;19.25
29460;PMS7003;16428;47.836;35.106;2022-12-31T20:16:33;26.00;22.75;18.25
29460;PMS7003;16428;47.836;35.106;2022-12-31T20:19:01;36.25;29.50;20.00
29460;PMS7003;16428;47.836;35.106;2022-12-31T20:21:30;29.50;28.00;22.75
29460;PMS7003;16428;47.836;35.106;2022-12-31T20:23:58;36.00;30.00;23.75
29460;PMS7003;16428;47.836;35.106;2022-12-31T20:26:26;33.50;30.00;21.00
29460;PMS7003;16428;47.836;35.106;2022-12-31T20:28:54;32.50;32.50;22.25
29460;PMS7003;16428;47.836;35.106;2022-12-31T20:31:23;33.25;28.75;18.50
29460;PMS7003;16428;47.836;35.106;2022-12-31T20:33:52;32.50;32.25;23.25
29460;PMS7003;16428;47.836;35.106;2022-12-31T20:36:21;37.75;30.50;18.50
29460;PMS7003;16428;47.836;35.106;2022-12-31T20:38:50;21.75;18.75;17.50
29460;PMS7003;16428;47.836;35.106;2022-12-31T20:41:19;27.00;21.50;11.25
29460;PMS7003;16428;47.836;35.106;2022-12-31T20:43:48;27.50;22.75;15.75
29460;PMS7003;16428;47.836;35.106;2022-12-31T20:46:21;32.50;29.75;21.00
29460;PMS7003;16428;47.836;35.106;2022-12-31T20:48:52;26.25;22.00;18.75
29460;PMS7003;16428;47.836;35.106;2022-12-31T20:51:22;23.00;18.50;15.00
29460;PMS7003;16428;47.836;35.106;2022-12-31T20:53:52;37.75;34.75;20.25
29460;PMS7003;16428;47.836;35.106;2022-12-31T20:56:24;43.00;28.00;18.25
29460;PMS7003;16428;47.836;35.106;2022-12-31T20:58:54;29.25;27.00;20.75
29460;PMS7003;16428;47.836;35.106;2022-12-31T21:01:23;28.25;24.00;19.25
29460;PMS7003;16428;47.836;35.106;2022-12-31T21:04:11;27.25;24.75;15.00
29460;PMS7003;16428;47.836;35.106;2022-12-31T21:06:40;37.00;30.50;23.00
29460;PMS7003;16428;47.836;35.106;2022-12-31T21:09:08;31.00;25.50;19.50
29460;PMS7003;16428;47.836;35.106;2022-12-31T21:11:37;51.25;32.00;18.00
29460;PMS7003;16428;47.836;35.106;2022-12-31T21:14:23;24.50;22.00;15.50
29460;PMS7003;16428;47.836;35.106;2022-12-31T21:16:51;29.50;23.75;17.75
29460;PMS7003;16428;47.836;35.106;2022-12-31T21:19:19;37.25;27.00;19.00
29460;PMS7003;16428;47.836;35.106;2022-12-31T21:21:47;27.50;23.25;19.00
29460;PMS7003;16428;47.836;35.106;2022-12-31T21:24:16;31.25;27.25;19.25
29460;PMS7003;16428;47.836;35.106;2022-12-31T21:26:53;35.75;24.50;19.00
29460;PMS7003;16428;47.836;35.106;2022-12-31T21:29:22;32.75;28.75;19.00
29460;PMS7003;16428;47.836;35.106;2022-12-31T21:31:50;31.50;23.75;20.75
29460;PMS7003;16428;47.836;35.106;2022-12-31T21:34:19;24.25;24.25;18.00
29460;PMS7003;16428;47.836;35.106;2022-12-31T21:36:48;25.00;23.00;16.25
29460;PMS7003;16428;47.836;35.106;2022-12-31T21:39:16;44.75;29.75;18.25
29460;PMS7003;16428;47.836;35.106;2022-12-31T21:41:45;36.00;26.75;17.00
29460;PMS7003;16428;47.836;35.106;2022-12-31T21:44:23;28.25;25.75;19.50
29460;PMS7003;16428;47.836;35.106;2022-12-31T21:46:53;27.50;21.00;16.00
29460;PMS7003;16428;47.836;35.106;2022-12-31T21:50:08;38.25;31.50;18.00
29460;PMS7003;16428;47.836;35.106;2022-12-31T21:52:36;48.75;40.25;23.25
29460;PMS7003;16428;47.836;35.106;2022-12-31T21:55:04;43.50;33.25;19.00
29460;PMS7003;16428;47.836;35.106;2022-12-31T21:57:51;33.75;23.25;19.75
29460;PMS7003;16428;47.836;35.106;2022-12-31T22:00:39;24.75;23.50;16.50
29460;PMS7003;16428;47.836;35.106;2022-12-31T22:03:26;24.75;24.75;18.25
29460;PMS7003;16428;47.836;35.106;2022-12-31T22:08:28;21.75;19.00;14.00
29460;PMS7003;16428;47.836;35.106;2022-12-31T22:11:11;13.00;8.50;8.00
29460;PMS7003;16428;47.836;35.106;2022-12-31T22:13:40;48.00;34.75;18.50
29460;PMS7003;16428;47.836;35.106;2022-12-31T22:16:10;39.75;28.25;20.75
29460;PMS7003;16428;47.836;35.106;2022-12-31T22:18:40;24.25;22.00;18.00
29460;PMS7003;16428;47.836;35.106;2022-12-31T22:23:48;28.00;18.50;16.50
29460;PMS7003;16428;47.836;35.106;2022-12-31T22:26:20;24.75;22.75;15.00
29460;PMS7003;16428;47.836;35.106;2022-12-31T22:28:50;46.25;31.00;24.25
29460;PMS7003;16428;47.836;35.106;2022-12-31T22:31:22;34.00;28.75;19.75
29460;PMS7003;16428;47.836;35.106;2022-12-31T22:33:53;29.50;27.25;19.25
29460;PMS7003;16428;47.836;35.106;2022-12-31T22:36:21;39.00;24.75;18.75
29460;PMS7003;16428;47.836;35.106;2022-12-31T22:38:53;42.75;27.50;20.75
29460;PMS7003;16428;47.836;35.106;2022-12-31T22:41:24;32.50;24.00;16.00
29460;PMS7003;16428;47.836;35.106;2022-12-31T22:43:54;19.75;19.50;13.75
29460;PMS7003;16428;47.836;35.106;2022-12-31T22:46:30;22.25;21.75;15.50
29460;PMS7003;16428;47.836;35.106;2022-12-31T22:48:59;29.25;18.00;13.75
29460;PMS7003;16428;47.836;35.106;2022-12-31T22:51:28;23.00;21.75;17.50
29460;PMS7003;16428;47.836;35.106;2022-12-31T22:54:18;29.50;27.50;15.50
29460;PMS7003;16428;47.836;35.106;2022-12-31T22:56:46;41.75;27.00;18.50
29460;PMS7003;16428;47.836;35.106;2022-12-31T22:59:14;18.50;17.75;13.75
29460;PMS7003;16428;47.836;35.106;2022-12-31T23:01:42;31.50;24.25;19.00
29460;PMS7003;16428;47.836;35.106;2022-12-31T23:04:10;18.50;18.50;13.50
29460;PMS7003;16428;47.836;35.106;2022-12-31T23:06:38;33.25;25.00;17.00
29460;PMS7003;16428;47.836;35.106;2022-12-31T23:09:14;26.50;24.00;16.00
29460;PMS7003;16428;47.836;35.106;2022-12-31T23:12:02;31.00;19.75;15.00
29460;PMS7003;16428;47.836;35.106;2022-12-31T23:14:32;23.00;21.50;14.75
29460;PMS7003;16428;47.836;35.106;2022-12-31T23:17:23;57.00;39.25;28.00
29460;PMS7003;16428;47.836;35.106;2022-12-31T23:20:12;10.75;9.00;5.75
29460;PMS7003;16428;47.836;35.106;2022-12-31T23:23:01;31.75;22.75;15.50
29460;PMS7003;16428;47.836;35.106;2022-12-31T23:25:40;27.25;24.25;17.75
29460;PMS7003;16428;47.836;35.106;2022-12-31T23:28:12;28.00;16.50;14.25
29460;PMS7003;16428;47.836;35.106;2022-12-31T23:30:46;37.00;28.00;19.50
29460;PMS7003;16428;47.836;35.106;2022-12-31T23:33:16;35.25;23.25;18.00
29460;PMS7003;16428;47.836;35.106;2022-12-31T23:35:46;30.50;19.00;13.25
29460;PMS7003;16428;47.836;35.106;2022-12-31T23:38:15;1.00;1.00;0.00
29460;PMS7003;16428;47.836;35.106;2022-12-31T23:40:44;26.75;23.75;18.75
29460;PMS7003;16428;47.836;35.106;2022-12-31T23:43:17;51.50;28.50;20.50
29460;PMS7003;16428;47.836;35.106;2022-12-31T23:45:50;27.00;25.75;16.25
29460;PMS7003;16428;47.836;35.106;2022-12-31T23:48:20;27.25;21.00;16.25
29460;PMS7003;16428;47.836;35.106;2022-12-31T23:50:48;25.00;24.00;19.50
29460;PMS7003;16428;47.836;35.106;2022-12-31T23:53:23;31.50;26.50;21.00
29460;PMS7003;16428;47.836;35.106;2022-12-31T23:55:51;24.75;24.00;19.00
29460;PMS7003;16428;47.836;35.106;2022-12-31T23:58:20;32.75;23.50;18.50
